Time;durP1;ratioP1;P1;durP2;ratioP2;P2;SDS_P1;SDS_P2;PMS_P1;PMS_P2;Temp;Humidity;BMP_temperature;BMP_pressure;BME280_temperature;BME280_humidity;BME280_pressure;Samples;Min_cycle;Max_cycle;Signal;HPM_P1;HPM_P2
2021/05/01 02:46:09;;;;;;;16.38;11.05;;;15.90;90.70;;;;;;5576442;23;20073;-72
2021/05/01 02:48:35;;;;;;;12.57;11.27;;;16.00;90.60;;;;;;4884848;29;20305;-72
2021/05/01 02:51:01;;;;;;;11.55;9.93;;;16.00;90.50;;;;;;4885822;29;20057;-73
2021/05/01 02:53:27;;;;;;;12.77;10.02;;;15.90;90.60;;;;;;4888344;29;20092;-72
2021/05/01 02:55:53;;;;;;;12.25;10.60;;;16.00;90.60;;;;;;4891930;29;20036;-73
2021/05/01 02:58:19;;;;;;;12.82;10.57;;;16.00;90.60;;;;;;4892033;29;20032;-72
2021/05/01 03:00:44;;;;;;;15.70;9.68;;;16.10;90.50;;;;;;4890573;29;20279;-72
2021/05/01 03:03:10;;;;;;;12.90;9.65;;;16.10;90.30;;;;;;4890711;29;20253;-72
2021/05/01 03:05:36;;;;;;;14.43;9.90;;;16.20;90.20;;;;;;4890689;29;20281;-72
2021/05/01 03:08:02;;;;;;;11.13;9.85;;;16.30;90.00;;;;;;4891890;29;20029;-72
2021/05/01 03:10:29;;;;;;;12.20;10.25;;;16.30;89.80;;;;;;4892255;29;20040;-72
2021/05/01 03:12:55;;;;;;;14.73;10.30;;;16.30;89.80;;;;;;4890487;29;20029;-72
2021/05/01 03:15:22;;;;;;;12.25;10.95;;;16.30;89.70;;;;;;4891638;29;20048;-72
2021/05/01 03:17:48;;;;;;;14.68;11.30;;;16.40;89.30;;;;;;4891904;29;20064;-72
2021/05/01 03:20:15;;;;;;;18.35;12.90;;;16.40;89.50;;;;;;4890282;29;20033;-72
2021/05/01 03:22:41;;;;;;;16.88;12.30;;;16.40;89.50;;;;;;4891486;29;20025;-73
2021/05/01 03:25:09;;;;;;;15.73;12.13;;;16.40;88.70;;;;;;4885366;29;20021;-72
2021/05/01 03:27:35;;;;;;;13.60;11.90;;;16.20;89.00;;;;;;4885343;29;20060;-72
2021/05/01 03:30:01;;;;;;;17.83;13.40;;;16.30;87.80;;;;;;4891322;29;20025;-71
2021/05/01 03:32:27;;;;;;;16.20;13.70;;;16.20;81.20;;;;;;4891413;29;20333;-71
2021/05/01 03:34:53;;;;;;;24.27;15.52;;;16.20;77.90;;;;;;4891471;29;20094;-72
2021/05/01 03:37:19;;;;;;;23.50;15.15;;;16.20;76.50;;;;;;4890196;29;20037;-71
2021/05/01 03:39:45;;;;;;;20.15;15.40;;;16.00;75.50;;;;;;4895520;29;20028;-72
2021/05/01 03:42:10;;;;;;;21.00;15.32;;;16.10;75.10;;;;;;4890113;29;20303;-71
2021/05/01 03:44:37;;;;;;;25.90;15.77;;;16.10;75.90;;;;;;4891078;29;20033;-71
2021/05/01 03:47:03;;;;;;;20.40;16.48;;;16.10;76.10;;;;;;4890672;29;20325;-71
2021/05/01 03:49:28;;;;;;;25.92;16.38;;;16.00;76.40;;;;;;4889938;29;20065;-74
2021/05/01 03:51:54;;;;;;;23.25;17.60;;;15.90;76.10;;;;;;4889955;29;20185;-71
2021/05/01 03:54:20;;;;;;;24.02;17.63;;;15.90;76.50;;;;;;4890958;29;20044;-71
2021/05/01 03:56:46;;;;;;;23.80;16.40;;;15.90;77.00;;;;;;4889840;29;20084;-71
2021/05/01 03:59:12;;;;;;;19.83;16.27;;;16.00;77.10;;;;;;4891039;29;20100;-72
2021/05/01 04:01:38;;;;;;;20.07;15.97;;;16.00;77.50;;;;;;4889502;29;20053;-72
2021/05/01 04:04:04;;;;;;;21.35;16.35;;;16.00;78.20;;;;;;4889443;29;20044;-72
2021/05/01 04:06:30;;;;;;;24.90;16.50;;;16.10;78.00;;;;;;4888964;29;20032;-72
2021/05/01 04:08:56;;;;;;;21.83;16.63;;;16.10;78.40;;;;;;4890779;29;20017;-72
2021/05/01 04:11:22;;;;;;;23.80;18.20;;;16.10;78.70;;;;;;4894960;29;20028;-72
2021/05/01 04:13:48;;;;;;;24.92;18.48;;;16.20;79.20;;;;;;4890746;29;20064;-71
2021/05/01 04:16:18;;;;;;;21.73;16.40;;;15.90;79.90;;;;;;4888991;29;20112;-72
2021/05/01 04:18:45;;;;;;;24.75;18.02;;;16.20;79.80;;;;;;4892379;29;20313;-72
2021/05/01 04:21:11;;;;;;;28.02;19.40;;;16.20;79.80;;;;;;4890344;29;20033;-72
2021/05/01 04:23:37;;;;;;;21.77;17.58;;;16.10;79.40;;;;;;4890481;29;20024;-71
2021/05/01 04:26:03;;;;;;;23.83;17.42;;;16.00;80.00;;;;;;4890440;29;20025;-71
2021/05/01 04:28:29;;;;;;;25.02;17.60;;;16.10;79.80;;;;;;4890454;29;20032;-72
2021/05/01 04:30:56;;;;;;;24.83;18.13;;;16.10;79.10;;;;;;4891101;29;20028;-72
2021/05/01 04:33:22;;;;;;;27.73;18.90;;;16.00;79.00;;;;;;4888982;29;20336;-72
2021/05/01 04:35:48;;;;;;;22.85;18.67;;;15.90;78.60;;;;;;4890281;29;20037;-72
2021/05/01 04:38:15;;;;;;;22.77;17.42;;;15.90;78.30;;;;;;4890183;29;20029;-72
2021/05/01 04:40:41;;;;;;;;;;;16.00;78.50;;;;;;4890770;29;20032;-71
2021/05/01 04:43:08;;;;;;;23.90;18.53;;;16.00;78.30;;;;;;4890071;29;19951;-71
2021/05/01 04:45:35;;;;;;;22.92;18.23;;;16.00;77.90;;;;;;4889848;29;20037;-72
2021/05/01 04:48:01;;;;;;;22.65;17.98;;;16.00;77.60;;;;;;4889956;29;20342;-72
2021/05/01 04:50:26;;;;;;;25.60;17.95;;;16.00;77.20;;;;;;4888916;29;20029;-72
2021/05/01 04:52:52;;;;;;;21.67;18.00;;;15.90;77.00;;;;;;4890107;29;20029;-71
2021/05/01 04:55:18;;;;;;;22.73;17.33;;;15.90;77.30;;;;;;4890262;29;20324;-71
2021/05/01 04:57:45;;;;;;;28.25;17.33;;;15.90;76.70;;;;;;4888932;29;20025;-71
2021/05/01 05:00:16;;;;;;;22.20;16.45;;;15.90;76.30;;;;;;4893018;29;20060;-71
2021/05/01 05:02:42;;;;;;;25.40;17.10;;;15.90;75.60;;;;;;4889556;29;20025;-71
2021/05/01 05:05:09;;;;;;;24.98;17.52;;;15.90;75.50;;;;;;4889997;29;20025;-72
2021/05/01 05:07:35;;;;;;;;;;;16.00;75.10;;;;;;4890267;29;20213;-71
2021/05/01 05:10:01;;;;;;;19.77;16.33;;;16.00;74.90;;;;;;4890998;29;19908;-71
2021/05/01 05:12:27;;;;;;;20.83;15.90;;;15.90;74.30;;;;;;4891892;29;20032;-72
2021/05/01 05:14:52;;;;;;;19.25;15.60;;;15.90;74.10;;;;;;4888720;29;20077;-71
2021/05/01 05:17:18;;;;;;;22.60;16.02;;;16.00;74.10;;;;;;4888228;29;20036;-71
2021/05/01 05:19:44;;;;;;;24.70;16.13;;;15.90;73.30;;;;;;4888573;29;20028;-72
2021/05/01 05:22:10;;;;;;;22.98;17.30;;;15.90;72.60;;;;;;4892433;29;20128;-72
2021/05/01 05:24:37;;;;;;;20.40;15.27;;;16.10;72.20;;;;;;4889388;29;20029;-72
2021/05/01 05:27:03;;;;;;;;;;;15.90;72.40;;;;;;4897534;29;20024;-72
2021/05/01 05:29:29;;;;;;;21.53;15.37;;;15.90;71.90;;;;;;4915883;29;19967;-71
2021/05/01 05:31:55;;;;;;;24.55;17.38;;;15.90;70.30;;;;;;4899662;29;20029;-72
2021/05/01 05:34:22;;;;;;;21.00;16.10;;;16.00;70.20;;;;;;4896381;29;20047;-72
2021/05/01 05:36:47;;;;;;;22.17;16.63;;;15.90;70.40;;;;;;4892509;29;20021;-72
2021/05/01 05:39:14;;;;;;;23.08;16.60;;;15.90;70.10;;;;;;4891293;29;20028;-72
2021/05/01 05:41:40;;;;;;;21.92;16.58;;;15.90;70.20;;;;;;4891917;29;20099;-72
2021/05/01 05:44:08;;;;;;;23.35;16.83;;;15.90;69.80;;;;;;4893178;29;20398;-72
2021/05/01 05:46:34;;;;;;;23.45;17.20;;;15.90;70.30;;;;;;4890483;29;20430;-72
2021/05/01 05:49:00;;;;;;;24.27;16.83;;;15.80;69.30;;;;;;4901870;29;20044;-72
2021/05/01 05:51:26;;;;;;;21.75;16.45;;;15.80;69.10;;;;;;4897026;29;20104;-72
2021/05/01 05:53:51;;;;;;;24.77;17.63;;;15.70;69.10;;;;;;4895889;29;20454;-72
2021/05/01 05:56:17;;;;;;;21.25;17.27;;;15.90;69.80;;;;;;4898222;29;20028;-71
2021/05/01 05:58:43;;;;;;;29.25;18.23;;;15.90;69.90;;;;;;4898204;29;20331;-72
2021/05/01 06:01:10;;;;;;;23.42;18.38;;;15.90;69.50;;;;;;4896943;29;20040;-71
2021/05/01 06:03:37;;;;;;;21.83;17.98;;;16.00;69.10;;;;;;4889416;29;20041;-72
2021/05/01 06:06:09;;;;;;;;;;;16.00;69.30;;;;;;4891511;29;20060;-71
2021/05/01 06:08:36;;;;;;;21.17;16.73;;;15.90;68.70;;;;;;4897464;29;19978;-72
2021/05/01 06:11:03;;;;;;;;;;;15.90;69.50;;;;;;4899758;29;20039;-72
2021/05/01 06:13:31;;;;;;;23.10;18.25;;;15.80;69.00;;;;;;4895666;29;19916;-70
2021/05/01 06:15:58;;;;;;;23.02;18.00;;;15.80;69.60;;;;;;4897311;29;20228;-70
2021/05/01 06:18:26;;;;;;;24.60;18.50;;;15.80;69.50;;;;;;4878885;29;20257;-72
2021/05/01 06:20:52;;;;;;;26.15;17.42;;;15.80;69.70;;;;;;4896122;29;20033;-71
2021/05/01 06:23:18;;;;;;;26.70;17.77;;;15.90;69.40;;;;;;4898751;29;20100;-71
2021/05/01 06:25:48;;;;;;;23.50;19.38;;;16.00;68.50;;;;;;4892754;29;20024;-70
2021/05/01 06:28:15;;;;;;;22.92;18.42;;;16.10;69.30;;;;;;4898572;29;20025;-71
2021/05/01 06:30:42;;;;;;;25.95;17.55;;;16.20;68.60;;;;;;4893587;29;20044;-70
2021/05/01 06:33:14;;;;;;;24.55;20.80;;;16.00;68.00;;;;;;4887777;29;20040;-71
2021/05/01 06:35:42;;;;;;;25.70;19.42;;;15.90;68.40;;;;;;4887099;29;20312;-71
2021/05/01 06:38:08;;;;;;;26.63;18.38;;;16.30;68.70;;;;;;4890001;29;20324;-71
2021/05/01 06:40:38;;;;;;;25.93;18.93;;;16.70;68.30;;;;;;4893366;29;20088;-71
2021/05/01 06:43:23;;;;;;;22.50;18.15;;;17.20;67.00;;;;;;4889973;29;20112;-71
2021/05/01 06:45:49;;;;;;;20.88;17.83;;;17.50;65.40;;;;;;4893543;29;20060;-71
2021/05/01 06:48:23;;;;;;;23.75;18.65;;;17.70;64.10;;;;;;4896085;29;20137;-71
2021/05/01 06:50:49;;;;;;;23.50;17.70;;;18.20;64.10;;;;;;4896088;29;20025;-72
2021/05/01 06:53:29;;;;;;;24.70;20.23;;;18.60;62.80;;;;;;4901953;29;20308;-71
2021/05/01 06:56:05;;;;;;;25.85;19.45;;;18.80;63.30;;;;;;4887257;29;20030;-71
2021/05/01 06:58:32;;;;;;;23.88;18.50;;;18.90;61.90;;;;;;4886442;29;20227;-71
2021/05/01 07:00:59;;;;;;;;;;;19.10;60.80;;;;;;4897055;29;20040;-71
2021/05/01 07:03:28;;;;;;;23.90;17.80;;;18.90;60.60;;;;;;4896471;29;20214;-71
2021/05/01 07:05:56;;;;;;;23.48;18.88;;;19.00;61.50;;;;;;4890543;29;20028;-72
2021/05/01 07:08:22;;;;;;;26.27;19.25;;;18.90;61.60;;;;;;4892180;29;20091;-71
2021/05/01 07:10:47;;;;;;;21.65;18.20;;;19.00;61.50;;;;;;4894890;29;20726;-71
2021/05/01 07:13:14;;;;;;;24.88;18.77;;;18.90;61.70;;;;;;4894919;29;20016;-71
2021/05/01 07:15:44;;;;;;;28.45;18.45;;;18.60;61.50;;;;;;4896039;29;20091;-71
2021/05/01 07:18:10;;;;;;;23.52;18.42;;;18.70;61.20;;;;;;4898790;29;20129;-71
2021/05/01 07:20:36;;;;;;;22.33;18.77;;;18.90;62.30;;;;;;4894568;29;20041;-71
2021/05/01 07:23:02;;;;;;;22.75;17.92;;;19.00;62.20;;;;;;4894192;29;20898;-72
2021/05/01 07:25:28;;;;;;;21.55;16.70;;;19.30;61.20;;;;;;4893663;29;20048;-71
2021/05/01 07:28:04;;;;;;;21.23;17.48;;;19.60;59.30;;;;;;4896497;29;20021;-72
2021/05/01 07:30:37;;;;;;;22.75;17.73;;;19.90;59.40;;;;;;4894522;29;20344;-72
2021/05/01 07:33:26;;;;;;;22.88;17.58;;;20.20;57.90;;;;;;4894020;29;20036;-72
2021/05/01 07:35:55;;;;;;;21.25;16.63;;;20.50;56.90;;;;;;4890760;29;20032;-71
2021/05/01 07:38:23;;;;;;;21.60;18.20;;;20.20;57.00;;;;;;4894675;29;20029;-71
2021/05/01 07:40:52;;;;;;;23.10;17.83;;;20.20;57.60;;;;;;4895873;29;20284;-72
2021/05/01 07:43:18;;;;;;;21.63;18.02;;;20.00;57.80;;;;;;4897429;29;20047;-72
2021/05/01 07:45:46;;;;;;;25.23;17.67;;;20.10;57.50;;;;;;4891047;29;20056;-71
2021/05/01 07:48:14;;;;;;;23.35;18.05;;;19.80;57.70;;;;;;4891875;29;20029;-71
2021/05/01 07:50:41;;;;;;;24.23;18.15;;;19.80;59.00;;;;;;4890223;29;20061;-71
2021/05/01 07:53:07;;;;;;;26.10;20.37;;;19.50;58.80;;;;;;4889133;29;20021;-71
2021/05/01 07:55:33;;;;;;;25.63;19.33;;;19.40;60.30;;;;;;4889392;29;20045;-72
2021/05/01 07:57:59;;;;;;;22.95;18.27;;;19.40;61.10;;;;;;4891159;29;20024;-71
2021/05/01 08:00:24;;;;;;;23.77;18.45;;;19.10;60.90;;;;;;4890915;29;20045;-70
2021/05/01 08:02:50;;;;;;;24.30;18.08;;;19.20;61.10;;;;;;4887873;29;20029;-70
2021/05/01 08:05:21;;;;;;;29.13;19.45;;;19.40;62.10;;;;;;4890619;29;20092;-70
2021/05/01 08:07:48;;;;;;;25.00;20.00;;;19.50;60.00;;;;;;4889639;29;20047;-70
2021/05/01 08:10:14;;;;;;;22.58;19.98;;;19.30;60.60;;;;;;4891139;29;20021;-71
2021/05/01 08:12:40;;;;;;;24.70;18.83;;;19.40;60.90;;;;;;4889655;29;20084;-70
2021/05/01 08:15:07;;;;;;;22.83;18.55;;;19.40;60.30;;;;;;4890720;29;20020;-67
2021/05/01 08:17:33;;;;;;;23.90;19.90;;;19.30;61.40;;;;;;4890031;29;20028;-69
2021/05/01 08:19:59;;;;;;;24.23;20.83;;;19.40;62.10;;;;;;4893442;29;20123;-70
2021/05/01 08:22:25;;;;;;;23.30;20.00;;;19.40;61.60;;;;;;4889754;29;20049;-70
2021/05/01 08:24:50;;;;;;;25.85;19.65;;;19.50;61.20;;;;;;4888245;29;20332;-70
2021/05/01 08:27:16;;;;;;;24.20;19.13;;;19.60;60.80;;;;;;4887510;29;20025;-70
2021/05/01 08:29:42;;;;;;;22.80;18.77;;;19.70;60.30;;;;;;4888269;29;20029;-70
2021/05/01 08:32:08;;;;;;;21.73;19.42;;;19.70;58.80;;;;;;4889917;29;20029;-70
2021/05/01 08:34:34;;;;;;;22.10;18.65;;;19.90;60.00;;;;;;4890185;29;20092;-70
2021/05/01 08:37:00;;;;;;;23.58;18.00;;;20.10;59.20;;;;;;4890258;29;20037;-70
2021/05/01 08:39:26;;;;;;;21.73;18.38;;;20.70;57.50;;;;;;4890297;29;20040;-70
2021/05/01 08:41:51;;;;;;;22.05;18.60;;;21.10;57.50;;;;;;4888839;29;20029;-69
2021/05/01 08:44:17;;;;;;;21.58;17.90;;;21.60;55.90;;;;;;4887012;29;20335;-69
2021/05/01 08:46:47;;;;;;;21.17;18.67;;;22.10;55.50;;;;;;4888199;29;20049;-69
2021/05/01 08:49:13;;;;;;;21.20;17.63;;;22.40;52.10;;;;;;4882785;29;20029;-70
2021/05/01 08:51:41;;;;;;;20.57;18.27;;;22.30;51.70;;;;;;4886177;29;20110;-70
2021/05/01 08:54:12;;;;;;;20.33;17.73;;;22.10;52.00;;;;;;4882988;29;20045;-70
2021/05/01 08:56:38;;;;;;;20.23;16.67;;;22.40;51.70;;;;;;4890476;29;20033;-71
2021/05/01 08:59:04;;;;;;;21.10;18.65;;;23.20;50.70;;;;;;4886024;29;20041;-69
2021/05/01 09:01:31;;;;;;;21.20;17.40;;;23.50;52.00;;;;;;4888554;29;20036;-67
2021/05/01 09:03:58;;;;;;;25.38;17.20;;;23.90;47.90;;;;;;4889063;29;20056;-68
2021/05/01 09:06:25;;;;;;;;;;;24.00;47.90;;;;;;4889880;29;20033;-67
2021/05/01 09:09:00;;;;;;;20.67;17.30;;;24.20;48.10;;;;;;4889485;29;19948;-68
2021/05/01 09:11:43;;;;;;;18.15;16.25;;;25.00;45.70;;;;;;4883376;29;20033;-68
2021/05/01 09:14:21;;;;;;;19.27;16.08;;;25.70;44.70;;;;;;4895698;29;20033;-66
2021/05/01 09:17:00;;;;;;;18.83;16.85;;;26.20;43.70;;;;;;4895499;29;20025;-66
2021/05/01 09:19:38;;;;;;;24.02;17.33;;;26.10;42.20;;;;;;4892875;29;20051;-66
2021/05/01 09:22:06;;;;;;;27.05;15.88;;;25.90;43.10;;;;;;4886598;29;20029;-66
2021/05/01 09:24:33;;;;;;;32.53;14.75;;;26.30;44.90;;;;;;4888961;29;20107;-69
2021/05/01 09:26:59;;;;;;;18.00;14.68;;;26.50;42.50;;;;;;4880783;29;20158;-69
2021/05/01 09:29:32;;;;;;;16.67;15.07;;;25.80;42.20;;;;;;4888788;29;20025;-69
2021/05/01 09:32:01;;;;;;;17.92;15.00;;;25.90;40.90;;;;;;4889125;29;20109;-69
2021/05/01 09:34:44;;;;;;;21.92;16.60;;;25.40;43.40;;;;;;4889347;29;20033;-69
2021/05/01 09:37:11;;;;;;;17.30;15.48;;;25.80;41.60;;;;;;4891417;29;20331;-71
2021/05/01 09:39:47;;;;;;;15.48;13.88;;;26.40;40.90;;;;;;4898884;29;20040;-68
2021/05/01 09:42:16;;;;;;;21.88;13.80;;;27.00;41.90;;;;;;4889383;29;20047;-66
2021/05/01 09:44:43;;;;;;;16.88;15.07;;;27.80;40.20;;;;;;4890719;29;20275;-66
2021/05/01 09:47:16;;;;;;;15.40;13.85;;;28.00;38.60;;;;;;4894787;29;20033;-66
2021/05/01 09:49:42;;;;;;;18.10;14.55;;;28.40;37.70;;;;;;4893725;29;20033;-67
2021/05/01 09:52:13;;;;;;;19.70;14.18;;;28.10;38.70;;;;;;4892502;29;20173;-69
2021/05/01 09:54:42;;;;;;;18.48;16.48;;;28.10;40.60;;;;;;4895634;29;20041;-66
2021/05/01 09:57:09;;;;;;;15.85;13.63;;;28.20;39.80;;;;;;4885541;29;20193;-66
2021/05/01 09:59:39;;;;;;;15.77;14.18;;;28.90;38.40;;;;;;4886496;29;20049;-68
2021/05/01 10:02:06;;;;;;;16.77;14.63;;;28.90;38.20;;;;;;4884926;29;20077;-66
2021/05/01 10:04:32;;;;;;;;;;;29.00;38.50;;;;;;4891014;29;20048;-66
2021/05/01 10:07:00;;;;;;;16.02;14.43;;;29.10;36.90;;;;;;4888835;29;19915;-67
2021/05/01 10:09:29;;;;;;;14.25;12.82;;;28.80;37.20;;;;;;4888628;29;20040;-68
2021/05/01 10:12:09;;;;;;;17.58;15.73;;;29.10;38.30;;;;;;4888898;29;20025;-71
2021/05/01 10:14:48;;;;;;;18.92;15.65;;;29.20;37.00;;;;;;4892202;29;20033;-68
2021/05/01 10:17:32;;;;;;;19.67;16.58;;;28.80;36.60;;;;;;4895607;29;20320;-68
2021/05/01 10:20:01;;;;;;;18.75;16.85;;;28.80;38.30;;;;;;4896532;29;20319;-66
2021/05/01 10:22:44;;;;;;;18.25;16.30;;;28.90;36.80;;;;;;4890979;29;20029;-66
2021/05/01 10:25:20;;;;;;;16.50;14.80;;;28.90;37.50;;;;;;4894058;29;20076;-67
2021/05/01 10:27:57;;;;;;;16.77;14.98;;;28.90;37.30;;;;;;4893762;29;20044;-66
2021/05/01 10:30:38;;;;;;;18.63;15.85;;;29.40;37.90;;;;;;4895415;29;20060;-66
2021/05/01 10:33:23;;;;;;;18.70;14.32;;;29.90;38.40;;;;;;4897427;29;20224;-66
2021/05/01 10:36:08;;;;;;;16.52;14.15;;;29.90;36.70;;;;;;4894756;29;20032;-67
2021/05/01 10:38:35;;;;;;;15.57;14.05;;;30.00;36.40;;;;;;4888309;29;20036;-67
2021/05/01 10:41:03;;;;;;;15.77;14.00;;;30.60;34.20;;;;;;4886934;29;20046;-66
2021/05/01 10:43:31;;;;;;;15.55;12.50;;;29.80;35.90;;;;;;4895481;29;20040;-69
2021/05/01 10:46:08;;;;;;;17.60;15.75;;;30.10;36.20;;;;;;4876233;29;20052;-68
2021/05/01 10:48:45;;;;;;;15.30;13.70;;;30.00;36.20;;;;;;4894609;29;20033;-66
2021/05/01 10:51:12;;;;;;;20.77;14.07;;;28.70;35.60;;;;;;4894483;29;20060;-66
2021/05/01 10:53:39;;;;;;;16.40;14.70;;;27.90;38.10;;;;;;4907451;29;20044;-67
2021/05/01 10:56:06;;;;;;;16.92;15.13;;;27.50;38.10;;;;;;4892073;29;20028;-66
2021/05/01 10:58:45;;;;;;;16.90;15.20;;;26.90;38.30;;;;;;4886523;29;20056;-66
2021/05/01 11:01:35;;;;;;;17.10;15.40;;;27.40;40.00;;;;;;4888452;29;20083;-66
2021/05/01 11:04:06;;;;;;;15.40;13.75;;;27.40;39.40;;;;;;4887432;29;20412;-66
2021/05/01 11:06:49;;;;;;;47.15;15.57;;;27.80;40.10;;;;;;4889630;29;20025;-66
2021/05/01 11:09:41;;;;;;;16.40;14.63;;;28.20;40.10;;;;;;4897616;29;20048;-66
2021/05/01 11:12:12;;;;;;;16.58;14.57;;;28.60;39.70;;;;;;4889235;29;20044;-66
2021/05/01 11:14:50;;;;;;;14.38;12.82;;;28.20;37.90;;;;;;4887157;29;20058;-67
2021/05/01 11:18:20;;;;;;;24.38;13.55;;;29.00;38.10;;;;;;4889322;29;20029;-67
2021/05/01 11:20:49;;;;;;;19.75;14.05;;;29.60;38.40;;;;;;4798154;30;20047;-67
2021/05/01 11:23:15;;;;;;;15.90;13.02;;;29.60;37.10;;;;;;4797120;29;20035;-66
2021/05/01 11:25:42;;;;;;;17.52;15.02;;;29.00;37.30;;;;;;4796660;29;20035;-66
2021/05/01 11:28:11;;;;;;;;;;;28.40;36.60;;;;;;4797652;30;20084;-67
2021/05/01 11:30:38;;;;;;;14.18;12.70;;;28.30;35.90;;;;;;4797254;29;19909;-66
2021/05/01 11:33:04;;;;;;;14.55;11.95;;;28.70;37.10;;;;;;4797602;30;20035;-66
2021/05/01 11:35:31;;;;;;;13.53;11.43;;;28.60;36.00;;;;;;4798046;29;20031;-67
2021/05/01 11:37:59;;;;;;;14.30;11.93;;;29.00;36.70;;;;;;4797409;29;20300;-66
2021/05/01 11:40:31;;;;;;;32.38;12.02;;;29.60;36.20;;;;;;4797491;29;20043;-67
2021/05/01 11:42:58;;;;;;;13.13;11.82;;;30.00;36.70;;;;;;4796744;29;20075;-67
2021/05/01 11:45:36;;;;;;;12.70;11.40;;;30.40;34.60;;;;;;4782367;30;20039;-69
2021/05/01 11:48:05;;;;;;;12.60;11.40;;;30.30;35.90;;;;;;4797401;30;20334;-67
2021/05/01 11:50:36;;;;;;;12.80;11.50;;;30.40;35.30;;;;;;4802928;29;20040;-67
2021/05/01 11:53:28;;;;;;;12.85;11.50;;;31.00;35.10;;;;;;4851267;29;20216;-66
2021/05/01 11:56:04;;;;;;;13.35;11.38;;;30.60;35.70;;;;;;4839926;29;20081;-67
2021/05/01 11:58:34;;;;;;;18.23;12.17;;;31.40;35.60;;;;;;4885479;29;20082;-66
2021/05/01 12:01:23;;;;;;;14.50;11.43;;;31.40;34.10;;;;;;4891042;29;20021;-66
2021/05/01 12:04:01;;;;;;;12.13;10.38;;;31.70;34.90;;;;;;4889408;29;20329;-66
2021/05/01 12:06:40;;;;;;;12.23;11.02;;;31.80;35.20;;;;;;4890457;29;20025;-67
2021/05/01 12:09:20;;;;;;;10.85;9.38;;;31.70;33.60;;;;;;4889441;29;20033;-66
2021/05/01 12:11:50;;;;;;;11.07;8.63;;;31.70;34.00;;;;;;4892900;29;20029;-67
2021/05/01 12:14:18;;;;;;;10.20;9.13;;;31.60;33.60;;;;;;4889399;29;20048;-67
2021/05/01 12:16:45;;;;;;;8.57;7.20;;;30.90;32.60;;;;;;4890853;29;20017;-67
2021/05/01 12:19:24;;;;;;;11.38;10.05;;;30.40;34.20;;;;;;4888682;29;20032;-67
2021/05/01 12:21:50;;;;;;;11.05;9.85;;;29.70;35.90;;;;;;4895616;29;20032;-67
2021/05/01 12:24:31;;;;;;;12.40;9.68;;;29.30;36.00;;;;;;4891967;29;20096;-66
2021/05/01 12:26:58;;;;;;;12.95;11.65;;;29.20;37.30;;;;;;4888290;29;20036;-67
2021/05/01 12:29:24;;;;;;;13.35;11.95;;;29.10;37.10;;;;;;4897999;29;20021;-66
2021/05/01 12:31:56;;;;;;;14.13;12.40;;;28.20;36.40;;;;;;4886653;29;20037;-66
2021/05/01 12:34:43;;;;;;;13.63;11.88;;;27.60;37.00;;;;;;4889595;29;20052;-66
2021/05/01 12:37:10;;;;;;;13.77;12.25;;;27.40;39.50;;;;;;4883936;29;20047;-70
2021/05/01 12:39:37;;;;;;;13.45;11.52;;;27.10;38.80;;;;;;4889821;29;20072;-66
2021/05/01 12:42:18;;;;;;;14.40;11.85;;;27.40;38.80;;;;;;4888589;29;20037;-67
2021/05/01 12:44:47;;;;;;;15.80;11.95;;;27.00;40.00;;;;;;4886165;29;20056;-67
2021/05/01 12:47:35;;;;;;;17.25;13.73;;;27.00;39.60;;;;;;4889254;29;20057;-68
2021/05/01 12:50:22;;;;;;;16.77;13.50;;;26.80;39.30;;;;;;4888446;29;20032;-67
2021/05/01 12:52:48;;;;;;;16.67;13.93;;;26.80;40.00;;;;;;4887310;29;20037;-67
2021/05/01 12:55:16;;;;;;;18.87;14.73;;;27.00;40.10;;;;;;4891726;29;20033;-68
2021/05/01 12:57:42;;;;;;;15.23;12.63;;;26.60;40.00;;;;;;4889500;29;20313;-69
2021/05/01 13:00:30;;;;;;;14.82;12.98;;;26.70;40.70;;;;;;4890582;29;20282;-68
2021/05/01 13:03:05;;;;;;;15.77;12.80;;;26.60;40.70;;;;;;4893924;29;20035;-68
2021/05/01 13:05:33;;;;;;;17.33;13.25;;;26.50;40.80;;;;;;4895923;29;20036;-68
2021/05/01 13:08:00;;;;;;;15.05;12.13;;;26.40;41.00;;;;;;4889808;29;20048;-68
2021/05/01 13:10:27;;;;;;;13.38;10.85;;;26.20;41.30;;;;;;4891000;29;20021;-67
2021/05/01 13:12:59;;;;;;;15.63;11.57;;;26.20;40.00;;;;;;4893904;29;20025;-68
2021/05/01 13:15:27;;;;;;;16.98;12.27;;;26.20;40.20;;;;;;4889564;29;20029;-70
2021/05/01 13:18:08;;;;;;;18.95;11.80;;;26.00;40.50;;;;;;4887491;29;20033;-67
2021/05/01 13:20:35;;;;;;;17.58;11.05;;;26.20;40.70;;;;;;4885867;29;20033;-68
2021/05/01 13:23:01;;;;;;;11.65;10.15;;;26.10;40.30;;;;;;4886304;29;20032;-68
2021/05/01 13:25:31;;;;;;;15.07;10.57;;;25.80;40.90;;;;;;4886043;29;20037;-68
2021/05/01 13:27:57;;;;;;;19.35;10.50;;;25.80;41.20;;;;;;4891070;29;20546;-68
2021/05/01 13:30:27;;;;;;;12.93;9.85;;;25.90;40.90;;;;;;4893301;29;20032;-68
2021/05/01 13:32:55;;;;;;;13.02;9.38;;;25.90;40.90;;;;;;4893582;29;20020;-68
2021/05/01 13:35:22;;;;;;;13.23;10.50;;;25.80;41.10;;;;;;4872153;29;20048;-69
2021/05/01 13:37:47;;;;;;;13.32;10.27;;;25.90;41.30;;;;;;4893073;29;20021;-69
2021/05/01 13:40:19;;;;;;;12.20;9.45;;;25.90;41.00;;;;;;4895960;29;20216;-68
2021/05/01 13:42:45;;;;;;;15.50;11.38;;;25.90;41.90;;;;;;4891200;29;20020;-70
2021/05/01 13:45:12;;;;;;;13.63;10.23;;;25.90;41.60;;;;;;4892872;29;20080;-70
2021/05/01 13:47:40;;;;;;;13.90;10.35;;;25.70;41.90;;;;;;4888790;29;20041;-68
2021/05/01 13:50:17;;;;;;;31.65;16.25;;;25.80;42.40;;;;;;4891467;29;20174;-66
2021/05/01 13:52:49;;;;;;;14.60;11.45;;;25.60;41.60;;;;;;4891281;29;20016;-66
2021/05/01 13:55:15;;;;;;;15.95;12.40;;;25.80;42.10;;;;;;4894634;29;20041;-67
2021/05/01 13:57:41;;;;;;;12.68;11.07;;;25.80;40.80;;;;;;4899056;29;20021;-66
2021/05/01 14:00:09;;;;;;;14.00;9.90;;;25.80;42.30;;;;;;4896413;29;20036;-66
2021/05/01 14:02:45;;;;;;;13.25;11.18;;;25.80;41.90;;;;;;4892065;29;20351;-66
2021/05/01 14:05:13;;;;;;;13.88;10.75;;;25.80;41.80;;;;;;4888718;29;20115;-66
2021/05/01 14:07:40;;;;;;;19.42;11.55;;;25.90;41.90;;;;;;4894572;29;20024;-65
2021/05/01 14:10:08;;;;;;;15.68;11.55;;;25.80;42.00;;;;;;4896076;29;20025;-66
2021/05/01 14:12:35;;;;;;;16.02;12.18;;;25.60;42.10;;;;;;4894614;29;20021;-66
2021/05/01 14:15:07;;;;;;;12.98;10.15;;;25.50;41.80;;;;;;4896575;29;20041;-65
2021/05/01 14:17:33;;;;;;;16.45;12.23;;;25.50;42.60;;;;;;4889152;29;20025;-65
2021/05/01 14:20:04;;;;;;;13.95;11.15;;;25.40;41.90;;;;;;4888885;29;20059;-66
2021/05/01 14:22:30;;;;;;;11.23;9.10;;;25.30;42.40;;;;;;4888123;29;20037;-68
2021/05/01 14:24:57;;;;;;;11.47;10.27;;;25.30;42.50;;;;;;4893307;29;20040;-66
2021/05/01 14:27:47;;;;;;;13.13;11.27;;;25.20;43.00;;;;;;4888118;29;20025;-65
2021/05/01 14:30:36;;;;;;;12.45;9.85;;;25.10;43.30;;;;;;4885287;29;20045;-65
2021/05/01 14:33:02;;;;;;;13.77;10.82;;;25.00;43.80;;;;;;4888109;29;20072;-65
2021/05/01 14:35:29;;;;;;;14.18;12.10;;;25.10;44.30;;;;;;4884968;29;20029;-65
2021/05/01 14:37:55;;;;;;;11.75;10.52;;;25.00;43.00;;;;;;4886577;29;20104;-65
2021/05/01 14:40:21;;;;;;;12.23;10.10;;;25.10;43.60;;;;;;4888400;29;20391;-65
2021/05/01 14:42:52;;;;;;;14.43;10.77;;;25.20;43.00;;;;;;4886988;29;20040;-65
2021/05/01 14:45:26;;;;;;;12.10;9.88;;;25.10;43.70;;;;;;4888014;29;20037;-65
2021/05/01 14:47:53;;;;;;;12.35;8.55;;;25.00;43.40;;;;;;4888249;29;20068;-65
2021/05/01 14:50:27;;;;;;;16.55;9.35;;;25.00;44.00;;;;;;4883857;29;20104;-65
2021/05/01 14:52:53;;;;;;;15.68;10.02;;;24.90;43.30;;;;;;4892078;29;20073;-65
2021/05/01 14:55:25;;;;;;;11.43;8.55;;;24.80;42.90;;;;;;4892371;29;20032;-65
2021/05/01 14:57:52;;;;;;;10.98;8.05;;;24.80;44.40;;;;;;4890986;29;20217;-65
2021/05/01 15:00:21;;;;;;;12.98;8.70;;;24.80;43.90;;;;;;4892210;29;20033;-65
2021/05/01 15:02:49;;;;;;;13.75;8.05;;;24.80;43.70;;;;;;4892092;29;20032;-65
2021/05/01 15:05:21;;;;;;;10.75;6.53;;;24.70;43.90;;;;;;4891769;29;20041;-65
2021/05/01 15:07:54;;;;;;;9.82;7.53;;;24.70;44.40;;;;;;4896207;29;20043;-66
2021/05/01 15:10:23;;;;;;;8.60;6.93;;;24.70;43.70;;;;;;4896362;29;20225;-65
2021/05/01 15:13:07;;;;;;;9.73;7.05;;;24.60;44.20;;;;;;4892021;29;20021;-64
2021/05/01 15:15:40;;;;;;;9.07;6.82;;;24.50;43.50;;;;;;4891029;29;20036;-64
2021/05/01 15:18:19;;;;;;;11.20;7.40;;;24.50;44.70;;;;;;4891746;29;20032;-65
2021/05/01 15:20:48;;;;;;;10.20;6.20;;;24.60;43.90;;;;;;4890840;29;20134;-65
2021/05/01 15:23:22;;;;;;;6.75;5.45;;;24.70;44.00;;;;;;4891572;29;20025;-65
2021/05/01 15:25:57;;;;;;;9.73;5.88;;;24.80;44.80;;;;;;4890289;29;20039;-66
2021/05/01 15:28:25;;;;;;;9.98;6.90;;;24.90;43.20;;;;;;4875068;29;20028;-65